Terminal Aerodrome Forecast
Issued by NWS

Home | Current Version | Previous Version | Text Only | Print | Product List | Glossary On
Versions: 1 2 3 4 5 6 7 8 9 10 11 12 13 14 15 16 17 18 19 20 21 22 23 24 25
161
FTUS42 KILM 031522 AAA
TAFCRE
TAF AMD
KCRE 031522Z 0315/0412 20009KT P6SM VCSH SCT020 BKN050 BKN150
      TEMPO 0315/0319 BKN025
     FM032000 22013KT P6SM VCTS SCT025 BKN040CB
     FM040100 23006KT P6SM VCSH SCT050 BKN100
     FM040900 27004KT 4SM BR SCT050 BKN100=

USA.gov is the U.S. government's official web portal to all federal, state and local government web resources and services.